sensor_id;sensor_type;location;lat;lon;timestamp;pressure;altitude;pressure_sealevel;temperature;humidity
21357;BME280;10836;53.068;18.234;2022-07-04T00:00:47;101139.41;;;13.67;100.00
21357;BME280;10836;53.068;18.234;2022-07-04T00:03:15;101138.31;;;13.63;100.00
21357;BME280;10836;53.068;18.234;2022-07-04T00:05:42;101138.34;;;13.58;100.00
21357;BME280;10836;53.068;18.234;2022-07-04T00:08:09;101144.91;;;13.62;100.00
21357;BME280;10836;53.068;18.234;2022-07-04T00:10:36;101141.69;;;13.45;100.00
21357;BME280;10836;53.068;18.234;2022-07-04T00:13:03;101136.22;;;13.45;100.00
21357;BME280;10836;53.068;18.234;2022-07-04T00:15:30;101137.56;;;13.52;100.00
21357;BME280;10836;53.068;18.234;2022-07-04T00:17:57;101135.34;;;13.54;100.00
21357;BME280;10836;53.068;18.234;2022-07-04T00:20:25;101136.13;;;13.65;100.00
21357;BME280;10836;53.068;18.234;2022-07-04T00:22:52;101133.44;;;13.50;100.00
21357;BME280;10836;53.068;18.234;2022-07-04T00:25:19;101131.81;;;13.49;100.00
21357;BME280;10836;53.068;18.234;2022-07-04T00:27:46;101129.09;;;13.44;100.00
21357;BME280;10836;53.068;18.234;2022-07-04T00:30:14;101125.84;;;13.42;100.00
21357;BME280;10836;53.068;18.234;2022-07-04T00:32:41;101128.56;;;13.42;100.00
21357;BME280;10836;53.068;18.234;2022-07-04T00:35:08;101125.31;;;13.35;100.00
21357;BME280;10836;53.068;18.234;2022-07-04T00:37:35;101120.13;;;13.28;100.00
21357;BME280;10836;53.068;18.234;2022-07-04T00:40:02;101118.16;;;13.39;100.00
21357;BME280;10836;53.068;18.234;2022-07-04T00:42:30;101118.72;;;13.41;100.00
21357;BME280;10836;53.068;18.234;2022-07-04T00:44:57;101117.28;;;13.43;100.00
21357;BME280;10836;53.068;18.234;2022-07-04T00:47:24;101110.97;;;13.48;100.00
21357;BME280;10836;53.068;18.234;2022-07-04T00:49:51;101103.25;;;13.50;100.00
21357;BME280;10836;53.068;18.234;2022-07-04T00:52:19;101111.56;;;13.40;100.00
21357;BME280;10836;53.068;18.234;2022-07-04T00:54:47;101107.22;;;13.34;100.00
21357;BME280;10836;53.068;18.234;2022-07-04T00:57:15;101102.59;;;13.24;100.00
21357;BME280;10836;53.068;18.234;2022-07-04T00:59:42;101105.63;;;13.22;100.00
21357;BME280;10836;53.068;18.234;2022-07-04T01:02:09;101106.75;;;13.16;100.00
21357;BME280;10836;53.068;18.234;2022-07-04T01:04:36;101110.00;;;13.23;100.00
21357;BME280;10836;53.068;18.234;2022-07-04T01:07:04;101105.63;;;13.12;100.00
21357;BME280;10836;53.068;18.234;2022-07-04T01:09:32;101105.63;;;13.22;100.00
21357;BME280;10836;53.068;18.234;2022-07-04T01:12:00;101107.81;;;13.20;100.00
21357;BME280;10836;53.068;18.234;2022-07-04T01:14:27;101111.09;;;13.22;100.00
21357;BME280;10836;53.068;18.234;2022-07-04T01:16:54;101112.22;;;13.16;100.00
21357;BME280;10836;53.068;18.234;2022-07-04T01:19:21;101106.44;;;13.13;100.00
21357;BME280;10836;53.068;18.234;2022-07-04T01:21:48;101103.47;;;13.04;100.00
21357;BME280;10836;53.068;18.234;2022-07-04T01:24:15;101104.53;;;13.08;100.00
21357;BME280;10836;53.068;18.234;2022-07-04T01:26:42;101107.56;;;13.07;100.00
21357;BME280;10836;53.068;18.234;2022-07-04T01:29:09;101104.53;;;13.08;100.00
21357;BME280;10836;53.068;18.234;2022-07-04T01:31:36;101106.75;;;13.16;100.00
21357;BME280;10836;53.068;18.234;2022-07-04T01:34:03;101108.38;;;13.07;100.00
21357;BME280;10836;53.068;18.234;2022-07-04T01:36:30;101101.88;;;12.98;100.00
21357;BME280;10836;53.068;18.234;2022-07-04T01:38:57;101101.88;;;12.98;100.00
21357;BME280;10836;53.068;18.234;2022-07-04T01:41:25;101096.88;;;13.00;100.00
21357;BME280;10836;53.068;18.234;2022-07-04T01:43:52;101101.81;;;13.03;100.00
21357;BME280;10836;53.068;18.234;2022-07-04T01:46:19;101092.19;;;13.11;100.00
21357;BME280;10836;53.068;18.234;2022-07-04T01:48:47;101100.13;;;13.12;100.00
21357;BME280;10836;53.068;18.234;2022-07-04T01:51:14;101104.63;;;12.93;100.00
21357;BME280;10836;53.068;18.234;2022-07-04T01:53:41;101104.59;;;12.98;100.00
21357;BME280;10836;53.068;18.234;2022-07-04T01:56:08;101107.34;;;12.93;100.00
21357;BME280;10836;53.068;18.234;2022-07-04T01:58:35;101105.19;;;12.85;100.00
21357;BME280;10836;53.068;18.234;2022-07-04T02:01:02;101099.16;;;12.88;100.00
21357;BME280;10836;53.068;18.234;2022-07-04T02:03:48;101099.44;;;12.86;100.00
21357;BME280;10836;53.068;18.234;2022-07-04T02:06:14;101103.00;;;12.87;100.00
21357;BME280;10836;53.068;18.234;2022-07-04T02:08:42;101106.81;;;12.86;100.00
21357;BME280;10836;53.068;18.234;2022-07-04T02:11:27;101110.13;;;12.78;100.00
21357;BME280;10836;53.068;18.234;2022-07-04T02:13:54;101109.31;;;12.72;100.00
21357;BME280;10836;53.068;18.234;2022-07-04T02:16:21;101106.88;;;12.65;100.00
21357;BME280;10836;53.068;18.234;2022-07-04T02:18:48;101099.75;;;12.64;100.00
21357;BME280;10836;53.068;18.234;2022-07-04T02:21:15;101105.22;;;12.75;100.00
21357;BME280;10836;53.068;18.234;2022-07-04T02:23:42;101107.69;;;12.71;100.00
21357;BME280;10836;53.068;18.234;2022-07-04T02:26:09;101105.75;;;12.72;100.00
21357;BME280;10836;53.068;18.234;2022-07-04T02:28:36;101101.41;;;12.60;100.00
21357;BME280;10836;53.068;18.234;2022-07-04T02:31:03;101102.50;;;12.64;100.00
21357;BME280;10836;53.068;18.234;2022-07-04T02:33:31;101104.19;;;12.50;100.00
21357;BME280;10836;53.068;18.234;2022-07-04T02:35:58;101093.78;;;12.47;100.00
21357;BME280;10836;53.068;18.234;2022-07-04T02:38:25;101094.34;;;12.39;100.00
21357;BME280;10836;53.068;18.234;2022-07-04T02:40:52;101095.44;;;12.38;100.00
21357;BME280;10836;53.068;18.234;2022-07-04T02:43:19;101091.03;;;12.52;100.00
21357;BME280;10836;53.068;18.234;2022-07-04T02:45:46;101101.44;;;12.45;100.00
21357;BME280;10836;53.068;18.234;2022-07-04T02:48:13;101093.72;;;12.57;100.00
21357;BME280;10836;53.068;18.234;2022-07-04T02:50:40;101100.00;;;12.73;100.00
21357;BME280;10836;53.068;18.234;2022-07-04T02:53:07;101090.94;;;12.88;100.00
21357;BME280;10836;53.068;18.234;2022-07-04T02:55:34;101090.09;;;12.92;100.00
21357;BME280;10836;53.068;18.234;2022-07-04T02:58:01;101077.22;;;12.88;100.00
21357;BME280;10836;53.068;18.234;2022-07-04T03:00:28;101087.66;;;12.81;100.00
21357;BME280;10836;53.068;18.234;2022-07-04T03:02:55;101085.75;;;12.81;100.00
21357;BME280;10836;53.068;18.234;2022-07-04T03:05:23;101079.97;;;12.83;100.00
21357;BME280;10836;53.068;18.234;2022-07-04T03:07:50;101085.16;;;12.89;100.00
21357;BME280;10836;53.068;18.234;2022-07-04T03:10:17;101091.94;;;13.02;100.00
21357;BME280;10836;53.068;18.234;2022-07-04T03:12:44;101096.66;;;12.96;100.00
21357;BME280;10836;53.068;18.234;2022-07-04T03:15:11;101084.88;;;12.96;100.00
21357;BME280;10836;53.068;18.234;2022-07-04T03:17:38;101078.75;;;13.09;100.00
21357;BME280;10836;53.068;18.234;2022-07-04T03:20:05;101078.22;;;13.12;100.00
21357;BME280;10836;53.068;18.234;2022-07-04T03:22:33;101064.50;;;13.07;100.00
21357;BME280;10836;53.068;18.234;2022-07-04T03:25:00;101077.06;;;13.28;100.00
21357;BME280;10836;53.068;18.234;2022-07-04T03:27:27;101080.88;;;13.38;100.00
21357;BME280;10836;53.068;18.234;2022-07-04T03:29:54;101078.59;;;13.45;100.00
21357;BME280;10836;53.068;18.234;2022-07-04T03:32:21;101081.22;;;13.65;100.00
21357;BME280;10836;53.068;18.234;2022-07-04T03:34:48;101086.09;;;13.78;100.00
21357;BME280;10836;53.068;18.234;2022-07-04T03:37:15;101082.06;;;13.99;100.00
21357;BME280;10836;53.068;18.234;2022-07-04T03:39:42;101089.97;;;14.06;100.00
21357;BME280;10836;53.068;18.234;2022-07-04T03:42:16;101083.38;;;14.07;100.00
21357;BME280;10836;53.068;18.234;2022-07-04T03:44:43;101084.13;;;14.18;100.00
21357;BME280;10836;53.068;18.234;2022-07-04T03:47:10;101089.97;;;14.35;100.00
21357;BME280;10836;53.068;18.234;2022-07-04T03:49:37;101094.34;;;14.41;100.00
21357;BME280;10836;53.068;18.234;2022-07-04T03:52:05;101083.28;;;14.51;100.00
21357;BME280;10836;53.068;18.234;2022-07-04T03:54:32;101080.22;;;14.53;100.00
21357;BME280;10836;53.068;18.234;2022-07-04T03:56:59;101091.47;;;14.56;100.00
21357;BME280;10836;53.068;18.234;2022-07-04T03:59:26;101096.81;;;14.72;100.00
21357;BME280;10836;53.068;18.234;2022-07-04T04:01:53;101096.91;;;14.85;100.00
21357;BME280;10836;53.068;18.234;2022-07-04T04:04:20;101101.31;;;15.10;100.00
21357;BME280;10836;53.068;18.234;2022-07-04T04:07:07;101095.88;;;15.24;100.00
21357;BME280;10836;53.068;18.234;2022-07-04T04:09:34;101088.84;;;15.37;100.00
21357;BME280;10836;53.068;18.234;2022-07-04T04:12:01;101089.28;;;15.44;100.00
21357;BME280;10836;53.068;18.234;2022-07-04T04:14:28;101092.34;;;15.61;100.00
21357;BME280;10836;53.068;18.234;2022-07-04T04:16:55;101091.75;;;15.64;99.46
21357;BME280;10836;53.068;18.234;2022-07-04T04:19:22;101092.06;;;15.62;100.00
21357;BME280;10836;53.068;18.234;2022-07-04T04:21:49;101088.72;;;15.84;99.55
21357;BME280;10836;53.068;18.234;2022-07-04T04:24:16;101095.50;;;15.73;100.00
21357;BME280;10836;53.068;18.234;2022-07-04T04:26:43;101079.94;;;15.82;100.00
21357;BME280;10836;53.068;18.234;2022-07-04T04:29:11;101082.25;;;15.94;100.00
21357;BME280;10836;53.068;18.234;2022-07-04T04:31:38;101086.72;;;16.04;100.00
21357;BME280;10836;53.068;18.234;2022-07-04T04:34:05;101078.22;;;16.19;99.46
21357;BME280;10836;53.068;18.234;2022-07-04T04:36:32;101073.16;;;16.26;98.99
21357;BME280;10836;53.068;18.234;2022-07-04T04:38:59;101073.16;;;16.26;99.23
21357;BME280;10836;53.068;18.234;2022-07-04T04:41:26;101066.59;;;16.22;99.07
21357;BME280;10836;53.068;18.234;2022-07-04T04:43:53;101058.28;;;16.41;99.00
21357;BME280;10836;53.068;18.234;2022-07-04T04:46:20;101049.09;;;16.45;98.95
21357;BME280;10836;53.068;18.234;2022-07-04T04:48:48;101052.59;;;16.65;98.08
21357;BME280;10836;53.068;18.234;2022-07-04T04:51:15;101054.25;;;16.66;97.74
21357;BME280;10836;53.068;18.234;2022-07-04T04:53:42;101064.47;;;16.79;95.46
21357;BME280;10836;53.068;18.234;2022-07-04T04:56:09;101060.59;;;16.80;93.96
21357;BME280;10836;53.068;18.234;2022-07-04T04:58:36;101062.31;;;16.89;93.76
21357;BME280;10836;53.068;18.234;2022-07-04T05:01:03;101063.81;;;16.95;93.85
21357;BME280;10836;53.068;18.234;2022-07-04T05:03:51;101054.97;;;17.35;92.23
21357;BME280;10836;53.068;18.234;2022-07-04T05:06:18;101051.97;;;17.58;92.24
21357;BME280;10836;53.068;18.234;2022-07-04T05:08:46;101057.31;;;17.77;92.25
21357;BME280;10836;53.068;18.234;2022-07-04T05:11:13;101052.69;;;17.86;90.66
21357;BME280;10836;53.068;18.234;2022-07-04T05:13:40;101055.97;;;18.11;90.09
21357;BME280;10836;53.068;18.234;2022-07-04T05:16:08;101059.25;;;18.21;89.08
21357;BME280;10836;53.068;18.234;2022-07-04T05:18:35;101064.72;;;18.35;88.26
21357;BME280;10836;53.068;18.234;2022-07-04T05:21:02;101065.31;;;18.54;87.64
21357;BME280;10836;53.068;18.234;2022-07-04T05:23:29;101065.75;;;18.79;87.01
21357;BME280;10836;53.068;18.234;2022-07-04T05:25:56;101061.22;;;18.83;86.53
21357;BME280;10836;53.068;18.234;2022-07-04T05:28:24;101061.06;;;18.88;84.99
21357;BME280;10836;53.068;18.234;2022-07-04T05:30:50;101056.66;;;18.87;85.70
21357;BME280;10836;53.068;18.234;2022-07-04T05:33:18;101055.56;;;18.97;85.97
21357;BME280;10836;53.068;18.234;2022-07-04T05:35:45;101048.75;;;19.20;84.11
21357;BME280;10836;53.068;18.234;2022-07-04T05:38:12;101046.84;;;19.29;83.05
21357;BME280;10836;53.068;18.234;2022-07-04T05:40:39;101041.81;;;19.40;81.82
21357;BME280;10836;53.068;18.234;2022-07-04T05:43:06;101042.16;;;19.64;83.00
21357;BME280;10836;53.068;18.234;2022-07-04T05:45:33;101042.00;;;19.86;81.76
21357;BME280;10836;53.068;18.234;2022-07-04T05:48:01;101041.47;;;20.02;80.49
21357;BME280;10836;53.068;18.234;2022-07-04T05:50:28;101046.28;;;20.39;77.63
21357;BME280;10836;53.068;18.234;2022-07-04T05:52:59;101047.34;;;20.64;76.28
21357;BME280;10836;53.068;18.234;2022-07-04T05:55:26;101048.03;;;20.52;75.37
21357;BME280;10836;53.068;18.234;2022-07-04T05:57:53;101048.47;;;20.72;75.76
21357;BME280;10836;53.068;18.234;2022-07-04T06:00:20;101056.22;;;20.87;75.04
21357;BME280;10836;53.068;18.234;2022-07-04T06:02:47;101058.38;;;21.61;72.29
21357;BME280;10836;53.068;18.234;2022-07-04T06:05:15;101062.91;;;22.65;69.88
21357;BME280;10836;53.068;18.234;2022-07-04T06:07:42;101066.75;;;23.21;66.56
21357;BME280;10836;53.068;18.234;2022-07-04T06:10:09;101064.78;;;25.59;59.02
21357;BME280;10836;53.068;18.234;2022-07-04T06:12:36;101065.19;;;25.77;56.35
21357;BME280;10836;53.068;18.234;2022-07-04T06:15:04;101071.75;;;27.14;53.40
21357;BME280;10836;53.068;18.234;2022-07-04T06:17:33;101070.72;;;28.20;48.65
21357;BME280;10836;53.068;18.234;2022-07-04T06:20:00;101068.47;;;29.24;46.06
21357;BME280;10836;53.068;18.234;2022-07-04T06:22:27;101080.91;;;29.20;45.74
21357;BME280;10836;53.068;18.234;2022-07-04T06:24:54;101091.72;;;29.18;45.83
21357;BME280;10836;53.068;18.234;2022-07-04T06:27:21;101099.75;;;28.31;46.37
21357;BME280;10836;53.068;18.234;2022-07-04T06:29:49;101103.97;;;28.88;46.89
21357;BME280;10836;53.068;18.234;2022-07-04T06:32:16;101100.69;;;30.03;44.07
21357;BME280;10836;53.068;18.234;2022-07-04T06:34:43;101102.91;;;29.10;44.59
21357;BME280;10836;53.068;18.234;2022-07-04T06:37:29;101106.41;;;29.44;44.58
21357;BME280;10836;53.068;18.234;2022-07-04T06:40:02;101113.34;;;30.94;41.58
21357;BME280;10836;53.068;18.234;2022-07-04T06:42:29;101108.81;;;31.79;40.22
21357;BME280;10836;53.068;18.234;2022-07-04T06:44:56;101110.13;;;30.85;41.15
21357;BME280;10836;53.068;18.234;2022-07-04T06:47:23;101109.31;;;31.38;39.55
21357;BME280;10836;53.068;18.234;2022-07-04T06:49:50;101101.16;;;31.75;39.34
21357;BME280;10836;53.068;18.234;2022-07-04T06:52:17;101107.69;;;32.49;38.48
21357;BME280;10836;53.068;18.234;2022-07-04T06:54:44;101114.78;;;32.02;37.51
21357;BME280;10836;53.068;18.234;2022-07-04T06:57:12;101103.69;;;31.31;40.05
21357;BME280;10836;53.068;18.234;2022-07-04T06:59:59;101106.00;;;30.36;41.53
21357;BME280;10836;53.068;18.234;2022-07-04T07:02:26;101114.63;;;29.74;43.64
21357;BME280;10836;53.068;18.234;2022-07-04T07:04:57;101109.06;;;29.96;42.21
21357;BME280;10836;53.068;18.234;2022-07-04T07:07:24;101105.22;;;28.94;46.50
21357;BME280;10836;53.068;18.234;2022-07-04T07:09:51;101105.84;;;28.03;50.03
21357;BME280;10836;53.068;18.234;2022-07-04T07:12:18;101112.22;;;27.70;50.71
21357;BME280;10836;53.068;18.234;2022-07-04T07:14:45;101105.50;;;28.82;49.74
21357;BME280;10836;53.068;18.234;2022-07-04T07:17:13;101099.63;;;28.98;49.24
21357;BME280;10836;53.068;18.234;2022-07-04T07:19:40;101100.09;;;29.65;46.31
21357;BME280;10836;53.068;18.234;2022-07-04T07:22:07;101103.59;;;30.24;46.04
21357;BME280;10836;53.068;18.234;2022-07-04T07:24:34;101091.66;;;29.65;46.05
21357;BME280;10836;53.068;18.234;2022-07-04T07:27:01;101095.75;;;29.17;46.51
21357;BME280;10836;53.068;18.234;2022-07-04T07:29:28;101088.63;;;28.41;47.85
21357;BME280;10836;53.068;18.234;2022-07-04T07:31:56;101087.31;;;28.72;47.51
21357;BME280;10836;53.068;18.234;2022-07-04T07:34:23;101081.59;;;29.06;45.03
21357;BME280;10836;53.068;18.234;2022-07-04T07:36:50;101075.97;;;29.02;44.03
21357;BME280;10836;53.068;18.234;2022-07-04T07:39:18;101089.69;;;28.67;43.36
21357;BME280;10836;53.068;18.234;2022-07-04T07:41:45;101087.03;;;29.36;44.36
21357;BME280;10836;53.068;18.234;2022-07-04T07:44:12;101091.34;;;29.92;43.78
21357;BME280;10836;53.068;18.234;2022-07-04T07:46:40;101101.00;;;29.84;44.09
21357;BME280;10836;53.068;18.234;2022-07-04T07:49:07;101110.53;;;29.65;47.14
21357;BME280;10836;53.068;18.234;2022-07-04T07:51:35;101097.16;;;30.41;41.96
21357;BME280;10836;53.068;18.234;2022-07-04T07:54:02;101101.81;;;29.95;43.98
21357;BME280;10836;53.068;18.234;2022-07-04T07:56:49;101103.78;;;29.76;46.15
21357;BME280;10836;53.068;18.234;2022-07-04T07:59:16;101102.09;;;29.06;47.62
21357;BME280;10836;53.068;18.234;2022-07-04T08:01:43;101101.38;;;29.17;46.72
21357;BME280;10836;53.068;18.234;2022-07-04T08:04:11;101099.72;;;29.12;45.61
21357;BME280;10836;53.068;18.234;2022-07-04T08:06:56;101091.19;;;29.56;43.44
21357;BME280;10836;53.068;18.234;2022-07-04T08:09:43;101090.13;;;29.17;44.27
21357;BME280;10836;53.068;18.234;2022-07-04T08:12:11;101100.94;;;29.14;44.46
21357;BME280;10836;53.068;18.234;2022-07-04T08:14:38;101118.69;;;29.22;45.57
21357;BME280;10836;53.068;18.234;2022-07-04T08:17:05;101135.16;;;28.39;47.72
21357;BME280;10836;53.068;18.234;2022-07-04T08:19:33;101136.69;;;26.74;51.42
21357;BME280;10836;53.068;18.234;2022-07-04T08:22:00;101137.84;;;26.12;54.28
21357;BME280;10836;53.068;18.234;2022-07-04T08:24:44;101148.63;;;25.56;55.31
21357;BME280;10836;53.068;18.234;2022-07-04T08:27:11;101158.50;;;24.59;57.18
21357;BME280;10836;53.068;18.234;2022-07-04T08:29:39;101175.41;;;24.22;58.54
21357;BME280;10836;53.068;18.234;2022-07-04T08:32:07;101166.41;;;23.88;59.50
21357;BME280;10836;53.068;18.234;2022-07-04T08:34:35;101167.19;;;23.37;58.84
21357;BME280;10836;53.068;18.234;2022-07-04T08:37:03;101157.88;;;23.20;59.47
21357;BME280;10836;53.068;18.234;2022-07-04T08:39:30;101150.78;;;22.99;60.61
21357;BME280;10836;53.068;18.234;2022-07-04T08:42:02;101167.56;;;22.78;60.36
21357;BME280;10836;53.068;18.234;2022-07-04T08:44:30;101184.31;;;22.90;61.48
21357;BME280;10836;53.068;18.234;2022-07-04T08:46:57;101177.91;;;22.56;61.29
21357;BME280;10836;53.068;18.234;2022-07-04T08:49:29;101190.25;;;22.68;60.73
21357;BME280;10836;53.068;18.234;2022-07-04T08:52:04;101178.59;;;22.41;61.47
21357;BME280;10836;53.068;18.234;2022-07-04T08:54:32;101182.03;;;22.38;62.54
21357;BME280;10836;53.068;18.234;2022-07-04T08:57:18;101200.09;;;22.32;63.11
21357;BME280;10836;53.068;18.234;2022-07-04T09:00:05;101193.03;;;22.14;62.77
21357;BME280;10836;53.068;18.234;2022-07-04T09:02:35;101191.53;;;22.37;63.66
21357;BME280;10836;53.068;18.234;2022-07-04T09:05:05;101181.63;;;22.48;61.92
21357;BME280;10836;53.068;18.234;2022-07-04T09:07:33;101188.38;;;22.60;61.20
21357;BME280;10836;53.068;18.234;2022-07-04T09:10:02;101198.00;;;22.29;66.26
21357;BME280;10836;53.068;18.234;2022-07-04T09:12:29;101198.28;;;21.65;69.02
21357;BME280;10836;53.068;18.234;2022-07-04T09:15:17;101198.56;;;21.43;73.13
21357;BME280;10836;53.068;18.234;2022-07-04T09:17:44;101205.03;;;21.17;75.14
21357;BME280;10836;53.068;18.234;2022-07-04T09:20:16;101193.50;;;20.98;76.69
21357;BME280;10836;53.068;18.234;2022-07-04T09:22:46;101189.34;;;20.75;79.14
21357;BME280;10836;53.068;18.234;2022-07-04T09:25:14;101177.38;;;20.83;81.18
21357;BME280;10836;53.068;18.234;2022-07-04T09:27:43;101180.03;;;20.71;83.07
21357;BME280;10836;53.068;18.234;2022-07-04T09:30:13;101171.59;;;20.50;81.63
21357;BME280;10836;53.068;18.234;2022-07-04T09:32:51;101179.59;;;20.43;83.16
21357;BME280;10836;53.068;18.234;2022-07-04T09:35:22;101180.22;;;20.05;87.48
21357;BME280;10836;53.068;18.234;2022-07-04T09:37:54;101182.50;;;19.94;89.36
21357;BME280;10836;53.068;18.234;2022-07-04T09:40:33;101179.56;;;19.82;88.29
21357;BME280;10836;53.068;18.234;2022-07-04T09:43:21;101156.84;;;19.46;92.12
21357;BME280;10836;53.068;18.234;2022-07-04T09:45:56;101165.78;;;19.43;91.95
21357;BME280;10836;53.068;18.234;2022-07-04T09:48:23;101166.63;;;19.52;91.59
21357;BME280;10836;53.068;18.234;2022-07-04T09:50:51;101159.66;;;19.72;92.92
21357;BME280;10836;53.068;18.234;2022-07-04T09:53:26;101172.56;;;19.93;94.04
21357;BME280;10836;53.068;18.234;2022-07-04T09:55:54;101174.84;;;19.91;93.01
21357;BME280;10836;53.068;18.234;2022-07-04T09:58:21;101191.63;;;19.78;99.25
21357;BME280;10836;53.068;18.234;2022-07-04T10:00:48;101187.34;;;19.63;100.00
21357;BME280;10836;53.068;18.234;2022-07-04T10:03:22;101180.84;;;19.68;100.00
21357;BME280;10836;53.068;18.234;2022-07-04T10:06:09;101151.97;;;19.60;100.00
21357;BME280;10836;53.068;18.234;2022-07-04T10:08:40;101154.25;;;19.58;100.00
21357;BME280;10836;53.068;18.234;2022-07-04T10:11:08;101145.91;;;19.41;100.00
21357;BME280;10836;53.068;18.234;2022-07-04T10:13:38;101125.13;;;19.12;100.00
21357;BME280;10836;53.068;18.234;2022-07-04T10:16:05;101123.97;;;19.05;100.00
21357;BME280;10836;53.068;18.234;2022-07-04T10:18:35;101116.44;;;18.97;100.00
21357;BME280;10836;53.068;18.234;2022-07-04T10:21:02;101109.97;;;19.10;100.00
21357;BME280;10836;53.068;18.234;2022-07-04T10:23:30;101109.09;;;18.92;100.00
21357;BME280;10836;53.068;18.234;2022-07-04T10:26:01;101107.91;;;19.33;100.00
21357;BME280;10836;53.068;18.234;2022-07-04T10:28:29;101098.38;;;19.65;100.00
21357;BME280;10836;53.068;18.234;2022-07-04T10:30:57;101101.13;;;20.08;100.00
21357;BME280;10836;53.068;18.234;2022-07-04T10:33:29;101085.75;;;20.36;100.00
21357;BME280;10836;53.068;18.234;2022-07-04T10:36:05;101091.25;;;20.71;98.81
21357;BME280;10836;53.068;18.234;2022-07-04T10:38:47;101094.56;;;20.93;96.17
21357;BME280;10836;53.068;18.234;2022-07-04T10:41:15;101084.63;;;20.84;94.21
21357;BME280;10836;53.068;18.234;2022-07-04T10:48:53;101087.03;;;21.74;84.84
21357;BME280;10836;53.068;18.234;2022-07-04T10:51:40;101100.25;;;22.64;81.32
21357;BME280;10836;53.068;18.234;2022-07-04T10:54:32;101105.88;;;23.37;75.37
21357;BME280;10836;53.068;18.234;2022-07-04T10:57:17;101113.41;;;24.01;74.65
21357;BME280;10836;53.068;18.234;2022-07-04T11:02:31;101115.59;;;24.35;71.55
21357;BME280;10836;53.068;18.234;2022-07-04T11:17:52;101098.53;;;26.05;60.10
21357;BME280;10836;53.068;18.234;2022-07-04T11:20:20;101093.38;;;26.26;59.67
21357;BME280;10836;53.068;18.234;2022-07-04T11:22:48;101092.94;;;26.05;60.68
21357;BME280;10836;53.068;18.234;2022-07-04T11:25:15;101095.41;;;26.48;53.19
21357;BME280;10836;53.068;18.234;2022-07-04T11:27:43;101092.63;;;26.29;55.43
21357;BME280;10836;53.068;18.234;2022-07-04T11:30:11;101095.97;;;26.35;50.12
21357;BME280;10836;53.068;18.234;2022-07-04T11:32:42;101102.25;;;26.51;50.04
21357;BME280;10836;53.068;18.234;2022-07-04T11:35:09;101095.06;;;26.73;50.21
21357;BME280;10836;53.068;18.234;2022-07-04T11:37:36;101096.28;;;26.52;47.43
21357;BME280;10836;53.068;18.234;2022-07-04T11:40:03;101102.41;;;26.81;52.95
21357;BME280;10836;53.068;18.234;2022-07-04T11:43:06;101086.34;;;26.78;48.19
21357;BME280;10836;53.068;18.234;2022-07-04T11:45:53;101103.38;;;27.98;48.59
21357;BME280;10836;53.068;18.234;2022-07-04T11:48:29;101090.19;;;28.35;47.75
21357;BME280;10836;53.068;18.234;2022-07-04T11:50:56;101093.53;;;27.25;46.56
21357;BME280;10836;53.068;18.234;2022-07-04T11:53:23;101091.13;;;25.93;50.15
21357;BME280;10836;53.068;18.234;2022-07-04T11:55:58;101091.75;;;26.25;51.69
21357;BME280;10836;53.068;18.234;2022-07-04T11:58:41;101086.31;;;26.32;50.83
21357;BME280;10836;53.068;18.234;2022-07-04T12:01:09;101085.31;;;27.12;48.80
21357;BME280;10836;53.068;18.234;2022-07-04T12:03:38;101080.78;;;27.31;50.34
21357;BME280;10836;53.068;18.234;2022-07-04T12:06:05;101075.88;;;26.52;49.22
21357;BME280;10836;53.068;18.234;2022-07-04T12:08:32;101083.66;;;26.62;50.16
21357;BME280;10836;53.068;18.234;2022-07-04T12:11:00;101077.53;;;26.57;48.98
21357;BME280;10836;53.068;18.234;2022-07-04T12:13:27;101075.78;;;27.17;48.73
21357;BME280;10836;53.068;18.234;2022-07-04T12:15:58;101074.63;;;27.48;48.74
21357;BME280;10836;53.068;18.234;2022-07-04T12:18:29;101063.69;;;27.13;48.92
21357;BME280;10836;53.068;18.234;2022-07-04T12:21:14;101079.38;;;27.44;50.35
21357;BME280;10836;53.068;18.234;2022-07-04T12:23:54;101072.47;;;27.64;46.70
21357;BME280;10836;53.068;18.234;2022-07-04T12:26:47;101069.03;;;28.45;46.28
21357;BME280;10836;53.068;18.234;2022-07-04T12:29:25;101060.44;;;28.75;46.11
21357;BME280;10836;53.068;18.234;2022-07-04T12:31:58;101060.59;;;29.44;45.37
21357;BME280;10836;53.068;18.234;2022-07-04T12:34:26;101057.16;;;29.13;45.51
21357;BME280;10836;53.068;18.234;2022-07-04T12:36:55;101057.38;;;29.42;46.93
21357;BME280;10836;53.068;18.234;2022-07-04T12:39:37;101061.56;;;29.76;44.91
21357;BME280;10836;53.068;18.234;2022-07-04T12:42:08;101059.66;;;30.09;45.70
21357;BME280;10836;53.068;18.234;2022-07-04T12:44:37;101068.97;;;30.34;46.28
21357;BME280;10836;53.068;18.234;2022-07-04T12:47:05;101060.06;;;30.11;45.30
21357;BME280;10836;53.068;18.234;2022-07-04T12:49:48;101055.84;;;29.62;46.27
21357;BME280;10836;53.068;18.234;2022-07-04T12:52:16;101058.47;;;30.14;44.41
21357;BME280;10836;53.068;18.234;2022-07-04T12:54:44;101056.84;;;30.02;45.02
21357;BME280;10836;53.068;18.234;2022-07-04T12:57:16;101050.94;;;29.41;43.85
21357;BME280;10836;53.068;18.234;2022-07-04T12:59:45;101060.78;;;29.87;44.26
21357;BME280;10836;53.068;18.234;2022-07-04T13:02:13;101048.72;;;29.83;44.59
21357;BME280;10836;53.068;18.234;2022-07-04T13:04:40;101041.53;;;30.03;44.00
21357;BME280;10836;53.068;18.234;2022-07-04T13:07:17;101052.91;;;30.53;41.58